Time;durP1;ratioP1;P1;durP2;ratioP2;P2;SDS_P1;SDS_P2;PMS_P1;PMS_P2;Temp;Humidity;BMP_temperature;BMP_pressure;BME280_temperature;BME280_humidity;BME280_pressure;Samples;Min_cycle;Max_cycle;Signal;HPM_P1;HPM_P2
2024/01/26 00:00:05;;;;;;;;;47.00;40.00;;;;;;;;5084595;28;45214;-75
2024/01/26 00:02:30;;;;;;;;;13.33;13.33;;;;;;;;5084840;28;45234;-75
2024/01/26 00:04:55;;;;;;;;;11.33;11.33;;;;;;;;5084014;28;46645;-75
2024/01/26 00:07:20;;;;;;;;;15.67;13.00;;;;;;;;5084177;28;45459;-75
2024/01/26 00:09:45;;;;;;;;;13.00;10.33;;;;;;;;5084289;28;45195;-75
2024/01/26 00:12:11;;;;;;;;;9.00;9.00;;;;;;;;5083210;28;45258;-75
2024/01/26 00:14:36;;;;;;;;;13.67;10.00;;;;;;;;5084167;28;46681;-77
2024/01/26 00:17:01;;;;;;;;;12.33;10.67;;;;;;;;5083520;28;45215;-77
2024/01/26 00:19:26;;;;;;;;;15.00;11.00;;;;;;;;5084229;28;45326;-77
2024/01/26 00:21:51;;;;;;;;;10.67;10.67;;;;;;;;5083270;28;45544;-77
2024/01/26 00:24:17;;;;;;;;;8.33;7.67;;;;;;;;5083958;28;45449;-77
2024/01/26 00:26:42;;;;;;;;;13.00;10.33;;;;;;;;5083512;28;45313;-77
2024/01/26 00:29:07;;;;;;;;;14.67;10.33;;;;;;;;5084033;28;45158;-76
2024/01/26 00:31:32;;;;;;;;;13.00;9.33;;;;;;;;5084390;28;45300;-76
2024/01/26 00:33:57;;;;;;;;;9.00;8.00;;;;;;;;5084041;27;45521;-76
2024/01/26 00:36:23;;;;;;;;;15.33;12.00;;;;;;;;5083506;28;45422;-76
2024/01/26 00:38:48;;;;;;;;;7.33;7.00;;;;;;;;5083853;28;45459;-77
2024/01/26 00:41:13;;;;;;;;;12.33;12.33;;;;;;;;5084129;28;45426;-73
2024/01/26 00:43:38;;;;;;;;;10.67;9.33;;;;;;;;5082035;28;46072;-74
2024/01/26 00:46:03;;;;;;;;;12.00;10.33;;;;;;;;5083711;28;45301;-74
2024/01/26 00:48:29;;;;;;;;;11.33;9.00;;;;;;;;5083785;28;45299;-74
2024/01/26 00:50:54;;;;;;;;;13.00;9.33;;;;;;;;5084437;28;45478;-74
2024/01/26 00:53:20;;;;;;;;;12.67;8.33;;;;;;;;5082147;28;48539;-74
2024/01/26 00:55:45;;;;;;;;;11.00;11.00;;;;;;;;5083684;28;45410;-75
2024/01/26 00:58:10;;;;;;;;;12.00;9.67;;;;;;;;5083207;28;45317;-74
2024/01/26 01:00:36;;;;;;;;;11.33;11.00;;;;;;;;5084236;28;45302;-74
2024/01/26 01:03:01;;;;;;;;;12.00;9.67;;;;;;;;5083371;28;46497;-74
2024/01/26 01:05:26;;;;;;;;;5.67;4.33;;;;;;;;5083470;27;45243;-75
2024/01/26 01:07:51;;;;;;;;;12.00;12.00;;;;;;;;5081882;28;45589;-74
2024/01/26 01:10:17;;;;;;;;;17.33;14.33;;;;;;;;5084115;28;45293;-74
2024/01/26 01:12:43;;;;;;;;;10.67;10.67;;;;;;;;5081545;28;47203;-74
2024/01/26 01:15:11;;;;;;;;;11.67;9.33;;;;;;;;5083309;28;45384;-74
2024/01/26 01:17:39;;;;;;;;;17.00;15.00;;;;;;;;5083370;28;45385;-74
2024/01/26 01:20:06;;;;;;;;;12.00;12.00;;;;;;;;5082373;28;45304;-74
2024/01/26 01:22:31;;;;;;;;;13.00;13.00;;;;;;;;5081510;28;47864;-75
2024/01/26 01:24:56;;;;;;;;;13.00;9.33;;;;;;;;5083154;28;45468;-74
2024/01/26 01:27:21;;;;;;;;;13.67;10.67;;;;;;;;5083272;27;45391;-74
2024/01/26 01:29:47;;;;;;;;;14.33;14.33;;;;;;;;5086160;28;45353;-75
2024/01/26 01:32:12;;;;;;;;;14.00;14.00;;;;;;;;5086797;28;46514;-74
2024/01/26 01:34:39;;;;;;;;;19.00;14.33;;;;;;;;5086943;28;45415;-75
2024/01/26 01:37:05;;;;;;;;;14.00;12.33;;;;;;;;5086728;28;45321;-74
2024/01/26 01:39:30;;;;;;;;;15.33;15.33;;;;;;;;5085921;27;45525;-74
2024/01/26 01:41:55;;;;;;;;;19.67;15.33;;;;;;;;5086297;28;46206;-74
2024/01/26 01:44:20;;;;;;;;;15.67;14.00;;;;;;;;5086683;28;45214;-75
2024/01/26 01:46:46;;;;;;;;;18.67;17.00;;;;;;;;5085212;28;45173;-74
2024/01/26 01:49:11;;;;;;;;;19.33;14.67;;;;;;;;5087084;27;45180;-75
2024/01/26 01:51:36;;;;;;;;;13.67;13.67;;;;;;;;5086317;28;45437;-74
2024/01/26 01:54:03;;;;;;;;;19.00;14.33;;;;;;;;5086569;27;45183;-74
2024/01/26 01:56:28;;;;;;;;;14.33;14.00;;;;;;;;5086276;28;45336;-75
2024/01/26 01:58:55;;;;;;;;;16.00;16.00;;;;;;;;5085405;27;45429;-74
2024/01/26 02:01:20;;;;;;;;;21.00;13.33;;;;;;;;5084861;28;47644;-74
2024/01/26 02:03:45;;;;;;;;;15.67;14.00;;;;;;;;5086296;28;45357;-74
2024/01/26 02:06:11;;;;;;;;;17.67;14.67;;;;;;;;5086048;28;45390;-74
2024/01/26 02:08:36;;;;;;;;;13.00;13.00;;;;;;;;5085442;28;45414;-74
2024/01/26 02:11:01;;;;;;;;;15.00;14.67;;;;;;;;5084679;28;45326;-74
2024/01/26 02:13:26;;;;;;;;;15.33;14.33;;;;;;;;5084829;27;45680;-74
2024/01/26 02:15:52;;;;;;;;;15.67;13.33;;;;;;;;5084714;27;45361;-74
2024/01/26 02:18:17;;;;;;;;;16.00;14.33;;;;;;;;5085269;28;45277;-74
2024/01/26 02:20:42;;;;;;;;;12.33;10.67;;;;;;;;5084493;27;47854;-74
2024/01/26 02:23:07;;;;;;;;;13.00;13.00;;;;;;;;5086102;28;45243;-74
2024/01/26 02:25:33;;;;;;;;;14.67;13.33;;;;;;;;5084624;28;45353;-74
2024/01/26 02:27:58;;;;;;;;;13.33;9.33;;;;;;;;5084883;28;45496;-75
2024/01/26 02:30:23;;;;;;;;;14.67;13.67;;;;;;;;5085902;28;46340;-75
2024/01/26 02:32:48;;;;;;;;;12.00;12.00;;;;;;;;5086074;28;45215;-75
2024/01/26 02:35:13;;;;;;;;;14.67;13.67;;;;;;;;5085882;28;45227;-74
2024/01/26 02:37:39;;;;;;;;;16.33;14.33;;;;;;;;5086135;28;45589;-75
2024/01/26 02:40:04;;;;;;;;;18.33;13.67;;;;;;;;5085205;28;45361;-74
2024/01/26 02:42:29;;;;;;;;;15.67;15.33;;;;;;;;5085418;28;45250;-75
2024/01/26 02:44:55;;;;;;;;;13.00;13.00;;;;;;;;5085800;27;45167;-74
2024/01/26 02:47:20;;;;;;;;;10.00;10.00;;;;;;;;5094453;27;45336;-74
2024/01/26 02:49:45;;;;;;;;;7.33;6.00;;;;;;;;5106131;27;45373;-74
2024/01/26 02:52:10;;;;;;;;;17.00;15.00;;;;;;;;5100081;27;45361;-74
2024/01/26 02:54:35;;;;;;;;;16.00;15.00;;;;;;;;5085606;28;45490;-75
2024/01/26 02:57:01;;;;;;;;;13.00;9.00;;;;;;;;5084475;28;45536;-74
2024/01/26 02:59:26;;;;;;;;;13.33;11.67;;;;;;;;5083941;28;47090;-75
2024/01/26 03:01:51;;;;;;;;;11.67;11.67;;;;;;;;5085572;28;45356;-75
2024/01/26 03:04:18;;;;;;;;;12.33;11.67;;;;;;;;5084161;28;45234;-74
2024/01/26 03:06:44;;;;;;;;;12.67;12.67;;;;;;;;5085492;28;45357;-74
2024/01/26 03:09:09;;;;;;;;;16.00;13.00;;;;;;;;5085061;28;46464;-74
2024/01/26 03:11:38;;;;;;;;;9.00;8.33;;;;;;;;5083824;28;45790;-74
2024/01/26 03:14:05;;;;;;;;;15.00;13.67;;;;;;;;5085464;28;45226;-74
2024/01/26 03:16:31;;;;;;;;;15.33;14.00;;;;;;;;5085561;28;45486;-74
2024/01/26 03:18:56;;;;;;;;;7.67;6.67;;;;;;;;5085067;28;46380;-74
2024/01/26 03:21:21;;;;;;;;;12.33;11.33;;;;;;;;5084315;27;45282;-74
2024/01/26 03:23:46;;;;;;;;;14.33;13.33;;;;;;;;5083651;28;45241;-74
2024/01/26 03:26:12;;;;;;;;;12.33;10.00;;;;;;;;5085440;28;45173;-75
2024/01/26 03:28:37;;;;;;;;;8.67;8.67;;;;;;;;5084603;28;45447;-74
2024/01/26 03:31:02;;;;;;;;;13.67;11.33;;;;;;;;5085410;28;45227;-74
2024/01/26 03:33:27;;;;;;;;;14.33;10.67;;;;;;;;5085141;28;45184;-74
2024/01/26 03:35:52;;;;;;;;;10.00;9.00;;;;;;;;5084152;28;45256;-74
2024/01/26 03:38:18;;;;;;;;;13.00;13.00;;;;;;;;5084632;28;46427;-74
2024/01/26 03:40:43;;;;;;;;;16.33;13.67;;;;;;;;5083820;28;45398;-74
2024/01/26 03:43:08;;;;;;;;;15.00;14.00;;;;;;;;5083777;27;45516;-75
2024/01/26 03:45:33;;;;;;;;;12.33;12.00;;;;;;;;5104452;27;45627;-74
2024/01/26 03:47:58;;;;;;;;;12.33;12.33;;;;;;;;5105032;27;46342;-74
2024/01/26 03:50:24;;;;;;;;;12.33;12.33;;;;;;;;5104332;27;45476;-74
2024/01/26 03:52:49;;;;;;;;;15.67;13.00;;;;;;;;5092178;27;45389;-74
2024/01/26 03:55:14;;;;;;;;;18.67;15.67;;;;;;;;5085202;27;45387;-74
2024/01/26 03:57:39;;;;;;;;;13.00;13.00;;;;;;;;5082617;28;46739;-74
2024/01/26 04:00:05;;;;;;;;;14.00;10.33;;;;;;;;5084352;28;45430;-74
2024/01/26 04:02:30;;;;;;;;;13.67;10.33;;;;;;;;5083221;28;45485;-74
2024/01/26 04:04:56;;;;;;;;;12.67;12.00;;;;;;;;5084729;28;45477;-75
2024/01/26 04:07:21;;;;;;;;;8.67;7.67;;;;;;;;5083997;28;46020;-74
2024/01/26 04:09:46;;;;;;;;;13.33;12.33;;;;;;;;5084380;28;45249;-75
2024/01/26 04:12:11;;;;;;;;;16.33;13.00;;;;;;;;5083019;28;45518;-75
2024/01/26 04:14:36;;;;;;;;;11.00;9.00;;;;;;;;5083105;28;45744;-75
2024/01/26 04:17:02;;;;;;;;;14.00;14.00;;;;;;;;5082534;27;46856;-75
2024/01/26 04:19:27;;;;;;;;;15.33;14.33;;;;;;;;5082182;28;45860;-74
2024/01/26 04:21:52;;;;;;;;;13.00;10.33;;;;;;;;5084164;28;45310;-75
2024/01/26 04:24:18;;;;;;;;;16.33;11.67;;;;;;;;5082964;28;45319;-75
2024/01/26 04:26:43;;;;;;;;;15.67;13.00;;;;;;;;5083434;28;45416;-75
2024/01/26 04:29:08;;;;;;;;;13.67;13.67;;;;;;;;5083712;28;45282;-75
2024/01/26 04:31:33;;;;;;;;;14.00;11.33;;;;;;;;5084058;28;45277;-75
2024/01/26 04:33:58;;;;;;;;;15.67;13.00;;;;;;;;5084134;28;45296;-75
2024/01/26 04:36:24;;;;;;;;;10.67;10.67;;;;;;;;5083572;28;45491;-75
2024/01/26 04:38:49;;;;;;;;;14.67;13.33;;;;;;;;5061830;28;45295;-75
2024/01/26 04:41:14;;;;;;;;;13.00;10.33;;;;;;;;5075316;28;45377;-75
2024/01/26 04:43:40;;;;;;;;;12.67;12.67;;;;;;;;5083863;28;45665;-76
2024/01/26 04:46:05;;;;;;;;;12.33;12.33;;;;;;;;5083511;27;45358;-75
2024/01/26 04:48:30;;;;;;;;;15.33;14.00;;;;;;;;5082266;28;45326;-75
2024/01/26 04:50:55;;;;;;;;;13.00;11.33;;;;;;;;5083607;28;45434;-75
2024/01/26 04:53:21;;;;;;;;;13.33;13.00;;;;;;;;5083928;28;45215;-75
2024/01/26 04:55:46;;;;;;;;;14.67;14.00;;;;;;;;5083650;28;45369;-75
2024/01/26 04:58:11;;;;;;;;;8.33;8.33;;;;;;;;5083159;28;45432;-75
2024/01/26 05:00:36;;;;;;;;;4.00;3.33;;;;;;;;5083679;28;45435;-75
2024/01/26 05:03:01;;;;;;;;;15.00;10.33;;;;;;;;5083744;28;45141;-75
2024/01/26 05:05:28;;;;;;;;;13.67;11.67;;;;;;;;5081702;28;46640;-75
2024/01/26 05:07:53;;;;;;;;;12.00;9.67;;;;;;;;5082786;28;45388;-75
2024/01/26 05:10:18;;;;;;;;;13.00;10.33;;;;;;;;5082038;27;45643;-75
2024/01/26 05:12:44;;;;;;;;;13.67;13.67;;;;;;;;5082027;28;45291;-75
2024/01/26 05:15:09;;;;;;;;;10.67;10.67;;;;;;;;5083005;28;45679;-75
2024/01/26 05:17:35;;;;;;;;;13.33;13.00;;;;;;;;5083008;27;45424;-75
2024/01/26 05:20:00;;;;;;;;;15.33;13.67;;;;;;;;5083332;28;45271;-75
2024/01/26 05:22:25;;;;;;;;;11.67;10.67;;;;;;;;5082227;28;45231;-76
2024/01/26 05:24:50;;;;;;;;;12.67;12.33;;;;;;;;5082912;28;46670;-75
2024/01/26 05:27:15;;;;;;;;;17.00;14.00;;;;;;;;5082137;27;45251;-76
2024/01/26 05:29:41;;;;;;;;;13.67;12.00;;;;;;;;5082723;28;45273;-75
2024/01/26 05:32:06;;;;;;;;;10.00;9.00;;;;;;;;5082781;28;45286;-74
2024/01/26 05:34:31;;;;;;;;;14.00;14.00;;;;;;;;5082390;27;46609;-75
2024/01/26 05:36:56;;;;;;;;;9.67;9.67;;;;;;;;5082243;28;45368;-75
2024/01/26 05:39:21;;;;;;;;;13.00;11.33;;;;;;;;5082768;28;45303;-75
2024/01/26 05:41:47;;;;;;;;;14.67;12.33;;;;;;;;5082398;28;45351;-75
2024/01/26 05:44:12;;;;;;;;;16.67;12.00;;;;;;;;5082179;28;46891;-75
2024/01/26 05:46:37;;;;;;;;;11.33;9.00;;;;;;;;5080404;28;45425;-75
2024/01/26 05:49:02;;;;;;;;;14.00;13.00;;;;;;;;5081841;28;45270;-75
2024/01/26 05:51:27;;;;;;;;;10.00;10.00;;;;;;;;5081812;28;45333;-74
2024/01/26 05:53:53;;;;;;;;;13.00;11.67;;;;;;;;5082014;28;45806;-74
2024/01/26 05:56:18;;;;;;;;;14.33;12.00;;;;;;;;5079500;27;45260;-75
2024/01/26 05:58:44;;;;;;;;;7.67;7.33;;;;;;;;5090247;27;45226;-75
2024/01/26 06:01:09;;;;;;;;;14.00;9.33;;;;;;;;5101068;27;45249;-75
2024/01/26 06:03:34;;;;;;;;;11.00;11.00;;;;;;;;5100305;27;47068;-75
2024/01/26 06:05:59;;;;;;;;;12.33;10.67;;;;;;;;5101466;27;45450;-75
2024/01/26 06:08:25;;;;;;;;;12.00;11.33;;;;;;;;5102456;27;45456;-75
2024/01/26 06:10:51;;;;;;;;;12.00;8.33;;;;;;;;5101438;27;45298;-75
2024/01/26 06:13:17;;;;;;;;;10.00;9.67;;;;;;;;5102144;27;45308;-75
2024/01/26 06:15:42;;;;;;;;;17.67;13.00;;;;;;;;5104012;27;45347;-75
2024/01/26 06:18:07;;;;;;;;;10.67;9.00;;;;;;;;5085126;27;45460;-75
2024/01/26 06:20:32;;;;;;;;;8.67;8.67;;;;;;;;5084289;28;45356;-75
2024/01/26 06:22:58;;;;;;;;;7.00;5.33;;;;;;;;5083635;28;46198;-75
2024/01/26 06:25:24;;;;;;;;;12.33;10.00;;;;;;;;5084626;28;45425;-77
2024/01/26 06:27:49;;;;;;;;;15.67;11.33;;;;;;;;5083512;28;45365;-77
2024/01/26 06:30:15;;;;;;;;;15.33;11.00;;;;;;;;5072254;28;45428;-77
2024/01/26 06:32:42;;;;;;;;;11.33;9.00;;;;;;;;5077937;28;45536;-77
2024/01/26 06:35:08;;;;;;;;;10.67;9.67;;;;;;;;5078160;27;45368;-77
2024/01/26 06:37:33;;;;;;;;;16.00;10.67;;;;;;;;5070023;28;45306;-76
2024/01/26 06:39:58;;;;;;;;;12.00;8.67;;;;;;;;5069142;28;45173;-77
2024/01/26 06:42:25;;;;;;;;;11.33;10.00;;;;;;;;5083819;28;45305;-77
2024/01/26 06:44:52;;;;;;;;;13.00;11.67;;;;;;;;5084120;28;45318;-78
2024/01/26 06:47:17;;;;;;;;;10.00;9.67;;;;;;;;5084203;28;45315;-78
2024/01/26 06:49:42;;;;;;;;;12.00;8.33;;;;;;;;5098984;27;45550;-77
2024/01/26 06:52:08;;;;;;;;;10.33;10.00;;;;;;;;5099605;27;45444;-76
2024/01/26 06:54:33;;;;;;;;;15.00;9.00;;;;;;;;5084644;27;45274;-77
2024/01/26 06:56:58;;;;;;;;;13.33;10.33;;;;;;;;5084590;28;45322;-77
2024/01/26 06:59:23;;;;;;;;;9.33;7.67;;;;;;;;5083446;27;45604;-76
2024/01/26 07:01:48;;;;;;;;;10.00;9.67;;;;;;;;5084332;28;45525;-78
2024/01/26 07:04:14;;;;;;;;;11.33;10.67;;;;;;;;5084574;28;45313;-80
2024/01/26 07:06:39;;;;;;;;;8.67;5.00;;;;;;;;5084719;28;45410;-77
2024/01/26 07:09:04;;;;;;;;;11.33;9.00;;;;;;;;5085422;28;45435;-77
2024/01/26 07:11:29;;;;;;;;;11.33;10.33;;;;;;;;5082941;27;47660;-77
2024/01/26 07:13:54;;;;;;;;;14.00;12.00;;;;;;;;5082531;27;45374;-77
2024/01/26 07:16:20;;;;;;;;;13.67;11.00;;;;;;;;5083500;28;45373;-78
2024/01/26 07:18:45;;;;;;;;;9.33;9.33;;;;;;;;5084929;28;45505;-77
2024/01/26 07:21:10;;;;;;;;;13.67;9.67;;;;;;;;5083132;28;47969;-78
2024/01/26 07:23:38;;;;;;;;;8.67;8.67;;;;;;;;5084086;28;45297;-79
2024/01/26 07:26:03;;;;;;;;;13.33;13.33;;;;;;;;5082531;27;45319;-77
2024/01/26 07:28:29;;;;;;;;;10.00;8.67;;;;;;;;5082360;28;45230;-75
2024/01/26 07:30:54;;;;;;;;;12.00;11.33;;;;;;;;5082321;28;47642;-77
2024/01/26 07:33:19;;;;;;;;;10.00;9.00;;;;;;;;5083570;28;45419;-77
2024/01/26 07:35:44;;;;;;;;;15.00;9.00;;;;;;;;5083710;28;45233;-76
2024/01/26 07:38:10;;;;;;;;;11.33;10.00;;;;;;;;5082133;28;45487;-76
2024/01/26 07:40:36;;;;;;;;;13.67;11.67;;;;;;;;5083717;28;45310;-77
2024/01/26 07:43:01;;;;;;;;;13.00;11.33;;;;;;;;5082007;28;45290;-77
2024/01/26 07:45:26;;;;;;;;;11.00;9.33;;;;;;;;5084064;28;45316;-76
2024/01/26 07:47:52;;;;;;;;;9.00;9.00;;;;;;;;5084307;28;45209;-76
2024/01/26 07:50:17;;;;;;;;;8.00;7.33;;;;;;;;5081565;27;46881;-76
2024/01/26 07:52:42;;;;;;;;;10.67;10.67;;;;;;;;5083654;28;45347;-76
2024/01/26 07:55:09;;;;;;;;;13.67;9.00;;;;;;;;5083507;27;45540;-78
2024/01/26 07:57:34;;;;;;;;;15.67;10.67;;;;;;;;5083679;28;45367;-77
2024/01/26 08:00:00;;;;;;;;;14.00;8.00;;;;;;;;5083856;28;45878;-77
2024/01/26 08:02:25;;;;;;;;;8.33;8.33;;;;;;;;5083486;28;45515;-76
2024/01/26 08:04:50;;;;;;;;;11.00;9.33;;;;;;;;5083702;28;45325;-77
2024/01/26 08:07:15;;;;;;;;;10.00;10.00;;;;;;;;5084000;28;45479;-76
2024/01/26 08:09:41;;;;;;;;;12.00;12.00;;;;;;;;5084131;28;45452;-77
2024/01/26 08:12:06;;;;;;;;;11.00;8.00;;;;;;;;5083064;27;45345;-78
2024/01/26 08:14:31;;;;;;;;;9.00;9.00;;;;;;;;5084519;28;45247;-79
2024/01/26 08:16:56;;;;;;;;;15.00;12.00;;;;;;;;5084698;28;45503;-77
2024/01/26 08:19:22;;;;;;;;;11.00;8.33;;;;;;;;5082131;28;47042;-77
2024/01/26 08:21:47;;;;;;;;;10.00;9.67;;;;;;;;5083877;28;45239;-78
2024/01/26 08:24:12;;;;;;;;;9.67;9.67;;;;;;;;5081824;28;45425;-77
2024/01/26 08:26:37;;;;;;;;;9.67;9.00;;;;;;;;5081629;28;45345;-77
2024/01/26 08:29:03;;;;;;;;;11.67;6.67;;;;;;;;5083143;28;46494;-77
2024/01/26 08:31:29;;;;;;;;;12.67;7.00;;;;;;;;5082483;28;45462;-78
2024/01/26 08:33:54;;;;;;;;;9.67;8.00;;;;;;;;5082220;28;45250;-77
2024/01/26 08:36:19;;;;;;;;;6.33;5.67;;;;;;;;5083175;28;45520;-78
2024/01/26 08:38:45;;;;;;;;;7.00;6.33;;;;;;;;5083273;28;45147;-76
2024/01/26 08:41:10;;;;;;;;;7.00;6.00;;;;;;;;5083465;28;45359;-77
2024/01/26 08:43:35;;;;;;;;;5.33;4.33;;;;;;;;5083592;28;45224;-78
2024/01/26 08:46:01;;;;;;;;;8.33;7.00;;;;;;;;5083743;28;45252;-76
2024/01/26 08:48:26;;;;;;;;;11.33;9.33;;;;;;;;5081418;28;47514;-77
2024/01/26 08:50:51;;;;;;;;;7.00;7.00;;;;;;;;5081563;28;45465;-77
2024/01/26 08:53:16;;;;;;;;;8.00;6.00;;;;;;;;5082440;28;45285;-77
2024/01/26 08:55:42;;;;;;;;;6.00;6.00;;;;;;;;5082556;28;45448;-78
2024/01/26 08:58:07;;;;;;;;;4.00;4.00;;;;;;;;5082906;28;45229;-77
2024/01/26 09:00:32;;;;;;;;;5.33;5.33;;;;;;;;5081867;27;45417;-78
2024/01/26 09:02:58;;;;;;;;;8.00;6.00;;;;;;;;5081664;28;45393;-78
2024/01/26 09:05:23;;;;;;;;;6.67;6.67;;;;;;;;5083173;28;45494;-79
2024/01/26 09:07:48;;;;;;;;;6.00;5.33;;;;;;;;5082503;28;45469;-78
2024/01/26 09:10:13;;;;;;;;;6.33;5.67;;;;;;;;5083320;28;45403;-77
2024/01/26 09:12:39;;;;;;;;;7.33;6.67;;;;;;;;5082890;28;45384;-77
2024/01/26 09:15:04;;;;;;;;;5.33;5.00;;;;;;;;5083497;28;45389;-76
2024/01/26 09:17:29;;;;;;;;;3.67;3.67;;;;;;;;5082872;28;45447;-76
2024/01/26 09:19:54;;;;;;;;;3.67;3.67;;;;;;;;5081818;27;45437;-77
2024/01/26 09:22:20;;;;;;;;;8.00;6.00;;;;;;;;5083073;28;45299;-76
2024/01/26 09:24:45;;;;;;;;;3.67;3.67;;;;;;;;5083754;28;45501;-78
2024/01/26 09:27:10;;;;;;;;;5.00;5.00;;;;;;;;5083859;27;45375;-80
2024/01/26 09:29:35;;;;;;;;;7.33;6.00;;;;;;;;5083439;28;45254;-79
2024/01/26 09:32:00;;;;;;;;;9.00;7.67;;;;;;;;5083102;28;45352;-78
2024/01/26 09:34:26;;;;;;;;;6.00;4.67;;;;;;;;5083615;28;45361;-79
2024/01/26 09:36:52;;;;;;;;;6.33;4.33;;;;;;;;5081238;28;47828;-77
2024/01/26 09:39:17;;;;;;;;;9.33;6.67;;;;;;;;5081645;28;45229;-77
2024/01/26 09:41:43;;;;;;;;;5.33;5.33;;;;;;;;5081237;28;45371;-78
2024/01/26 09:44:08;;;;;;;;;9.00;5.00;;;;;;;;5083698;28;45637;-78
2024/01/26 09:46:33;;;;;;;;;6.67;6.67;;;;;;;;5083060;28;46279;-77
2024/01/26 09:48:59;;;;;;;;;10.33;6.00;;;;;;;;5084551;27;45262;-78
2024/01/26 09:51:27;;;;;;;;;9.00;7.00;;;;;;;;5085280;28;45243;-79
2024/01/26 09:53:56;;;;;;;;;4.33;4.33;;;;;;;;5086967;28;45408;-79
2024/01/26 09:56:21;;;;;;;;;7.67;6.00;;;;;;;;5082101;27;46906;-79
2024/01/26 09:58:46;;;;;;;;;7.67;4.00;;;;;;;;5082502;27;45351;-79
2024/01/26 10:01:14;;;;;;;;;3.67;1.00;;;;;;;;5105951;27;45514;-80
2024/01/26 10:03:39;;;;;;;;;3.33;3.33;;;;;;;;5107540;27;45336;-79
2024/01/26 10:06:05;;;;;;;;;2.33;1.00;;;;;;;;5104912;27;45293;-78
2024/01/26 10:08:37;;;;;;;;;4.00;2.67;;;;;;;;5105133;27;45321;-78
2024/01/26 10:11:03;;;;;;;;;1.67;1.67;;;;;;;;5105177;27;45338;-78
2024/01/26 10:13:28;;;;;;;;;1.67;1.67;;;;;;;;5106931;27;45452;-79
2024/01/26 10:16:02;;;;;;;;;1.67;1.00;;;;;;;;5106358;27;46786;-77
2024/01/26 10:18:36;;;;;;;;;2.33;2.00;;;;;;;;5106783;27;45347;-78
2024/01/26 10:21:02;;;;;;;;;5.00;2.00;;;;;;;;5106811;27;45486;-78
2024/01/26 10:23:27;;;;;;;;;1.67;1.67;;;;;;;;5105484;27;45382;-79
2024/01/26 10:25:52;;;;;;;;;4.33;4.33;;;;;;;;5094047;27;45343;-77
2024/01/26 10:28:17;;;;;;;;;2.33;2.00;;;;;;;;5085546;28;45282;-78
2024/01/26 10:30:43;;;;;;;;;6.00;4.00;;;;;;;;5085764;28;45366;-76
2024/01/26 10:33:09;;;;;;;;;6.33;2.00;;;;;;;;5084889;27;45462;-78
2024/01/26 10:35:35;;;;;;;;;3.33;3.00;;;;;;;;5085221;28;46203;-78
2024/01/26 10:38:02;;;;;;;;;5.00;3.33;;;;;;;;5085493;28;45255;-77
2024/01/26 10:40:28;;;;;;;;;4.33;3.00;;;;;;;;5098167;27;45255;-78
2024/01/26 10:42:54;;;;;;;;;2.00;2.00;;;;;;;;5084531;28;45443;-78
2024/01/26 10:45:20;;;;;;;;;6.00;5.00;;;;;;;;5085571;28;46281;-79
2024/01/26 10:47:47;;;;;;;;;1.33;1.33;;;;;;;;5085379;28;45360;-77
2024/01/26 10:50:12;;;;;;;;;5.50;5.00;;;;;;;;5085694;28;45373;-77
2024/01/26 10:52:38;;;;;;;;;1.67;1.00;;;;;;;;5084419;28;45481;-78
2024/01/26 10:55:04;;;;;;;;;6.67;6.33;;;;;;;;5085109;27;45552;-76
2024/01/26 10:57:30;;;;;;;;;4.67;4.33;;;;;;;;5085130;28;45253;-77
2024/01/26 10:59:55;;;;;;;;;2.67;2.00;;;;;;;;5085094;28;45147;-77
2024/01/26 11:02:24;;;;;;;;;6.00;3.67;;;;;;;;5084436;28;45567;-77
2024/01/26 11:04:50;;;;;;;;;4.33;4.00;;;;;;;;5087068;28;45630;-75
2024/01/26 11:07:17;;;;;;;;;6.33;2.00;;;;;;;;5097763;27;45334;-77
2024/01/26 11:09:46;;;;;;;;;4.00;3.00;;;;;;;;5085982;27;45400;-76
2024/01/26 11:12:21;;;;;;;;;4.00;4.00;;;;;;;;5096657;28;45589;-78
2024/01/26 11:15:02;;;;;;;;;2.00;2.00;;;;;;;;5094552;27;45274;-76
2024/01/26 11:17:27;;;;;;;;;2.00;1.00;;;;;;;;5085227;27;45389;-75
2024/01/26 11:19:59;;;;;;;;;2.67;2.67;;;;;;;;5072595;28;45390;-76
2024/01/26 11:22:31;;;;;;;;;2.67;2.33;;;;;;;;5081821;27;45343;-77
2024/01/26 11:24:58;;;;;;;;;7.00;5.00;;;;;;;;5073888;28;46514;-78
2024/01/26 11:27:23;;;;;;;;;5.00;5.00;;;;;;;;5080695;28;45819;-78
2024/01/26 11:29:49;;;;;;;;;6.00;4.00;;;;;;;;5085744;28;45402;-78
2024/01/26 11:32:18;;;;;;;;;5.67;3.00;;;;;;;;5070434;28;45417;-77
2024/01/26 11:34:44;;;;;;;;;1.67;0.00;;;;;;;;5074020;28;45531;-77
2024/01/26 11:37:13;;;;;;;;;3.00;2.00;;;;;;;;5083482;28;45385;-76
2024/01/26 11:39:39;;;;;;;;;8.00;3.33;;;;;;;;5077909;28;45515;-77
2024/01/26 11:42:08;;;;;;;;;2.33;2.33;;;;;;;;5084174;28;45342;-78
2024/01/26 11:44:37;;;;;;;;;7.00;5.00;;;;;;;;5075345;28;46408;-78
2024/01/26 11:47:02;;;;;;;;;3.00;2.00;;;;;;;;5082122;28;45539;-78
2024/01/26 11:49:27;;;;;;;;;3.00;2.33;;;;;;;;5073527;28;45431;-79
2024/01/26 11:51:52;;;;;;;;;8.00;4.00;;;;;;;;5082219;28;45329;-78
2024/01/26 11:54:18;;;;;;;;;4.00;4.00;;;;;;;;5079599;28;46350;-77
2024/01/26 11:56:43;;;;;;;;;9.00;5.33;;;;;;;;5081425;28;45218;-78
2024/01/26 11:59:08;;;;;;;;;8.33;4.67;;;;;;;;5081245;28;45511;-78
2024/01/26 12:01:33;;;;;;;;;4.00;2.67;;;;;;;;5083529;27;45423;-76
2024/01/26 12:04:00;;;;;;;;;6.33;3.33;;;;;;;;5083657;28;46020;-76
2024/01/26 12:06:25;;;;;;;;;2.67;2.67;;;;;;;;5084957;28;45427;-78
2024/01/26 12:08:50;;;;;;;;;2.67;1.00;;;;;;;;5084056;28;45415;-76
2024/01/26 12:11:17;;;;;;;;;6.00;3.00;;;;;;;;5089905;28;45292;-75
2024/01/26 12:13:44;;;;;;;;;7.00;1.00;;;;;;;;5081266;28;47126;-77
2024/01/26 12:16:10;;;;;;;;;1.00;1.00;;;;;;;;5086016;28;45422;-76
2024/01/26 12:18:36;;;;;;;;;4.00;1.00;;;;;;;;5077831;28;45229;-76
2024/01/26 12:21:02;;;;;;;;;3.00;3.00;;;;;;;;5080099;28;45437;-77
2024/01/26 12:23:27;;;;;;;;;2.33;2.33;;;;;;;;5074955;28;45494;-77
2024/01/26 12:25:52;;;;;;;;;4.00;3.00;;;;;;;;5080197;28;45772;-76
2024/01/26 12:28:18;;;;;;;;;8.67;2.00;;;;;;;;5076011;28;45781;-75
2024/01/26 12:30:45;;;;;;;;;1.00;1.00;;;;;;;;5074991;28;45230;-76
2024/01/26 12:33:11;;;;;;;;;2.00;2.00;;;;;;;;5066623;28;45385;-76
2024/01/26 12:35:40;;;;;;;;;4.33;2.00;;;;;;;;5076719;28;45299;-76
2024/01/26 12:38:08;;;;;;;;;3.00;1.00;;;;;;;;5080328;28;45429;-77
2024/01/26 12:40:34;;;;;;;;;5.00;4.00;;;;;;;;5075234;28;45592;-75
2024/01/26 12:43:02;;;;;;;;;1.67;1.00;;;;;;;;5077806;28;45375;-76
2024/01/26 12:45:28;;;;;;;;;4.00;2.00;;;;;;;;5073830;28;45464;-77
2024/01/26 12:47:53;;;;;;;;;2.67;1.00;;;;;;;;5079584;28;45390;-76
2024/01/26 12:50:18;;;;;;;;;2.00;2.00;;;;;;;;5076197;28;45357;-77
2024/01/26 12:52:44;;;;;;;;;3.00;2.00;;;;;;;;5079264;28;47096;-76
2024/01/26 12:55:09;;;;;;;;;1.67;0.33;;;;;;;;5076780;28;45709;-76
2024/01/26 12:57:35;;;;;;;;;4.00;2.00;;;;;;;;5080901;28;45280;-75
2024/01/26 13:00:00;;;;;;;;;1.00;1.00;;;;;;;;5079980;27;45441;-77
2024/01/26 13:02:25;;;;;;;;;2.00;1.33;;;;;;;;5081266;28;45450;-76
2024/01/26 13:04:52;;;;;;;;;1.67;1.00;;;;;;;;5065828;27;45302;-77
2024/01/26 13:07:18;;;;;;;;;1.00;1.00;;;;;;;;5081574;28;46408;-77
2024/01/26 13:09:43;;;;;;;;;2.00;2.00;;;;;;;;5070413;28;46267;-77
2024/01/26 13:12:09;;;;;;;;;1.33;1.00;;;;;;;;5082638;28;45390;-78
2024/01/26 13:14:34;;;;;;;;;1.00;1.00;;;;;;;;5068589;28;45358;-76
2024/01/26 13:16:59;;;;;;;;;6.33;3.00;;;;;;;;5082774;28;45261;-77
2024/01/26 13:19:25;;;;;;;;;3.67;2.00;;;;;;;;5072420;28;45377;-78
2024/01/26 13:21:50;;;;;;;;;15.00;10.33;;;;;;;;5081313;28;46814;-77
2024/01/26 13:24:15;;;;;;;;;6.00;2.00;;;;;;;;5075089;28;45475;-77
2024/01/26 13:26:42;;;;;;;;;5.67;2.67;;;;;;;;5097114;27;45349;-78
2024/01/26 13:29:08;;;;;;;;;1.67;1.33;;;;;;;;5077490;28;45397;-77
2024/01/26 13:31:33;;;;;;;;;1.00;1.00;;;;;;;;5077283;27;45699;-77
2024/01/26 13:33:58;;;;;;;;;3.00;3.00;;;;;;;;5077666;28;45484;-76
2024/01/26 13:36:24;;;;;;;;;6.33;3.00;;;;;;;;5078309;27;45252;-76
2024/01/26 13:38:49;;;;;;;;;2.00;1.00;;;;;;;;5082546;28;45334;-75
2024/01/26 13:41:16;;;;;;;;;1.00;1.00;;;;;;;;5085244;28;46729;-77
2024/01/26 13:43:41;;;;;;;;;1.00;1.00;;;;;;;;5080541;27;45381;-77
2024/01/26 13:46:06;;;;;;;;;4.00;2.00;;;;;;;;5081934;28;45222;-76
2024/01/26 13:48:34;;;;;;;;;2.00;0.00;;;;;;;;5078792;28;45479;-77
2024/01/26 13:50:59;;;;;;;;;1.00;0.00;;;;;;;;5081077;28;45365;-78
2024/01/26 13:53:25;;;;;;;;;2.00;2.00;;;;;;;;5081893;28;45487;-79
2024/01/26 13:55:50;;;;;;;;;4.00;2.00;;;;;;;;5083133;28;45490;-75
2024/01/26 13:58:16;;;;;;;;;3.00;1.00;;;;;;;;5083560;27;45439;-76
2024/01/26 14:00:42;;;;;;;;;2.00;0.67;;;;;;;;5084754;28;46362;-78
2024/01/26 14:03:07;;;;;;;;;3.00;0.67;;;;;;;;5079987;28;45401;-77
2024/01/26 14:05:34;;;;;;;;;2.67;2.00;;;;;;;;5072913;28;45589;-77
2024/01/26 14:08:00;;;;;;;;;3.00;2.00;;;;;;;;5078838;28;45255;-78
2024/01/26 14:10:25;;;;;;;;;4.33;4.33;;;;;;;;5075043;28;45808;-77
2024/01/26 14:12:51;;;;;;;;;1.67;1.67;;;;;;;;5080909;28;45268;-76
2024/01/26 14:15:16;;;;;;;;;1.00;0.00;;;;;;;;5076616;27;45447;-77
2024/01/26 14:17:42;;;;;;;;;5.33;2.00;;;;;;;;5082365;28;45274;-76
2024/01/26 14:20:07;;;;;;;;;4.00;4.00;;;;;;;;5079822;28;45255;-77